createdAt,value
2019-04-14T00:03:45.440Z,101809.23
2019-04-14T00:09:14.172Z,101813.13
2019-04-14T00:14:38.943Z,101816.20
2019-04-14T00:20:05.380Z,101808.20
2019-04-14T00:25:30.280Z,101809.98
2019-04-14T00:30:55.582Z,101806.52
2019-04-14T00:36:28.418Z,101799.78
2019-04-14T00:42:01.594Z,101802.81
2019-04-14T00:47:54.755Z,101803.35
2019-04-14T00:53:14.243Z,101806.98
2019-04-14T00:58:38.943Z,101801.42
2019-04-14T01:04:03.462Z,101800.13
2019-04-14T01:09:28.472Z,101800.60
2019-04-14T01:14:53.894Z,101803.30
2019-04-14T01:20:17.406Z,101798.64
2019-04-14T01:25:41.628Z,101803.74
2019-04-14T01:31:05.560Z,101807.34
2019-04-14T01:36:29.834Z,101806.95
2019-04-14T01:41:54.391Z,101802.32
2019-04-14T01:47:18.790Z,101804.47
2019-04-14T01:52:50.131Z,101810.59
2019-04-14T01:58:36.113Z,101806.78
2019-04-14T02:04:00.594Z,101804.98
2019-04-14T02:09:25.211Z,101810.98
2019-04-14T02:14:49.518Z,101813.20
2019-04-14T02:20:14.239Z,101809.08
2019-04-14T02:25:40.675Z,101813.78
2019-04-14T02:31:18.156Z,101808.73
2019-04-14T02:36:57.123Z,101803.17
2019-04-14T02:53:18.401Z,101811.11
2019-04-14T03:03:56.772Z,101805.08
2019-04-14T03:09:38.217Z,101812.51
2019-04-14T03:14:55.599Z,101810.81
2019-04-14T03:20:31.853Z,101807.92
2019-04-14T03:25:59.220Z,101817.05
2019-04-14T03:31:49.595Z,101813.64
2019-04-14T03:47:53.187Z,101800.73
2019-04-14T03:53:15.899Z,101811.12
2019-04-14T03:58:11.513Z,101804.94
2019-04-14T04:03:36.842Z,101809.67
2019-04-14T04:09:01.903Z,101806.33
2019-04-14T04:14:29.103Z,101808.16
2019-04-14T04:20:11.736Z,101808.43
2019-04-14T04:25:44.588Z,101807.51
2019-04-14T04:31:32.826Z,101800.58
2019-04-14T04:37:06.067Z,101812.39
2019-04-14T04:42:30.771Z,101812.14
2019-04-14T04:47:54.210Z,101811.78
2019-04-14T04:53:18.755Z,101813.67
2019-04-14T04:58:43.495Z,101823.63
2019-04-14T05:04:09.029Z,101820.27
2019-04-14T05:09:51.368Z,101827.73
2019-04-14T05:15:27.626Z,101833.70
2019-04-14T05:20:51.297Z,101828.44
2019-04-14T05:26:17.815Z,101837.43
2019-04-14T05:31:42.578Z,101837.83
2019-04-14T05:37:07.216Z,101841.17
2019-04-14T05:42:31.890Z,101848.83
2019-04-14T05:47:56.529Z,101851.33
2019-04-14T05:53:20.080Z,101848.44
2019-04-14T05:58:44.640Z,101852.45
2019-04-14T06:04:10.023Z,101857.19
2019-04-14T06:09:34.388Z,101863.20
2019-04-14T06:14:58.058Z,101855.09
2019-04-14T06:20:21.454Z,101866.44
2019-04-14T06:25:46.186Z,101862.94
2019-04-14T06:31:27.841Z,101860.30
2019-04-14T06:37:03.350Z,101861.52
2019-04-14T06:42:27.156Z,101865.72
2019-04-14T06:47:51.460Z,101866.05
2019-04-14T06:53:15.802Z,101871.92
2019-04-14T06:58:40.604Z,101877.19
2019-04-14T07:04:05.170Z,101876.58
2019-04-14T07:09:29.675Z,101888.00
2019-04-14T07:14:53.575Z,101890.72
2019-04-14T07:20:17.713Z,101889.48
2019-04-14T07:25:41.896Z,101887.72
2019-04-14T07:31:37.148Z,101886.73
2019-04-14T07:37:19.531Z,101889.33
2019-04-14T07:42:51.899Z,101890.95
2019-04-14T07:48:23.692Z,101893.63
2019-04-14T07:54:04.944Z,101888.97
2019-04-14T07:59:48.180Z,101898.51
2019-04-14T08:05:18.224Z,101898.91
2019-04-14T08:10:42.406Z,101906.59
2019-04-14T08:16:05.827Z,101912.39
2019-04-14T08:21:29.552Z,101907.66
2019-04-14T08:26:53.817Z,101904.11
2019-04-14T08:32:17.481Z,101904.42
2019-04-14T08:37:42.370Z,101914.92
2019-04-14T08:43:29.013Z,101912.88
2019-04-14T08:48:56.844Z,101913.58
2019-04-14T08:54:24.794Z,101915.22
2019-04-14T09:00:07.343Z,101912.55
2019-04-14T09:06:05.241Z,101911.68
2019-04-14T09:11:36.704Z,101909.57
2019-04-14T09:17:00.089Z,101907.48
2019-04-14T09:22:24.640Z,101905.25
2019-04-14T09:27:48.804Z,101908.59
2019-04-14T09:33:14.503Z,101914.61
2019-04-14T09:38:38.649Z,101919.94
2019-04-14T09:44:03.066Z,101926.70
2019-04-14T09:49:27.542Z,101932.92
2019-04-14T09:54:50.929Z,101936.97
2019-04-14T10:00:15.037Z,101941.87
2019-04-14T10:05:38.838Z,101932.23
2019-04-14T10:11:03.402Z,101934.31
2019-04-14T10:16:27.716Z,101930.91
2019-04-14T10:21:51.196Z,101938.61
2019-04-14T10:27:14.859Z,101943.55
2019-04-14T10:32:39.235Z,101951.06
2019-04-14T10:38:03.733Z,101958.12
2019-04-14T10:43:27.118Z,101950.94
2019-04-14T10:48:50.811Z,101951.42
2019-04-14T10:54:14.523Z,101959.13
2019-04-14T10:59:38.723Z,101951.02
2019-04-14T11:05:02.138Z,101961.50
2019-04-14T11:10:26.216Z,101949.97
2019-04-14T11:15:50.780Z,101950.52
2019-04-14T11:21:15.438Z,101953.37
2019-04-14T11:26:39.549Z,101947.67
2019-04-14T11:32:20.485Z,101944.37
2019-04-14T11:38:10.145Z,101952.56
2019-04-14T11:43:34.702Z,101950.19
2019-04-14T11:48:58.541Z,101933.34
2019-04-14T11:54:21.888Z,101938.22
2019-04-14T11:59:55.033Z,101932.64
2019-04-14T12:05:30.205Z,101937.20
2019-04-14T12:10:54.370Z,101926.13
2019-04-14T12:16:17.985Z,101931.36
2019-04-14T12:21:42.102Z,101935.63
2019-04-14T12:27:05.480Z,101932.45
2019-04-14T12:32:30.602Z,101931.53
2019-04-14T12:37:55.249Z,101928.45
2019-04-14T12:43:32.811Z,101927.39
2019-04-14T12:49:18.834Z,101927.91
2019-04-14T12:54:43.316Z,101930.00
2019-04-14T13:00:15.063Z,101920.45
2019-04-14T13:05:38.421Z,101911.78
2019-04-14T13:11:03.335Z,101910.88
2019-04-14T13:16:27.860Z,101909.56
2019-04-14T13:21:53.117Z,101894.81
2019-04-14T13:27:16.426Z,101889.38
2019-04-14T13:32:39.854Z,101888.31
2019-04-14T13:38:04.642Z,101884.63
2019-04-14T13:43:27.972Z,101885.03
2019-04-14T13:48:52.135Z,101892.76
2019-04-14T13:54:16.057Z,101900.49
2019-04-14T13:59:40.627Z,101890.94
2019-04-14T14:05:05.015Z,101889.19
2019-04-14T14:10:29.309Z,101889.08
2019-04-14T14:16:07.022Z,101895.47
2019-04-14T14:21:40.865Z,101886.09
2019-04-14T14:27:05.996Z,101888.09
2019-04-14T14:32:35.447Z,101889.53
2019-04-14T14:37:59.861Z,101891.34
2019-04-14T14:43:23.353Z,101885.02
2019-04-14T14:48:54.796Z,101890.95
2019-04-14T14:54:18.185Z,101890.73
2019-04-14T14:59:41.975Z,101894.88
2019-04-14T15:05:05.781Z,101893.63
2019-04-14T15:10:30.134Z,101892.32
2019-04-14T15:15:55.283Z,101884.55
2019-04-14T15:21:19.487Z,101886.48
2019-04-14T15:26:42.918Z,101895.36
2019-04-14T15:32:07.224Z,101889.66
2019-04-14T15:37:31.586Z,101900.94
2019-04-14T15:42:55.834Z,101890.27
2019-04-14T15:48:20.055Z,101897.87
2019-04-14T15:53:43.842Z,101898.60
2019-04-14T15:59:13.886Z,101904.62
2019-04-14T16:05:02.151Z,101914.96
2019-04-14T16:10:40.887Z,101906.38
2019-04-14T16:16:24.172Z,101919.48
2019-04-14T16:21:47.649Z,101920.61
2019-04-14T16:27:35.252Z,101913.80
2019-04-14T16:33:06.769Z,101916.58
2019-04-14T16:38:30.842Z,101921.41
2019-04-14T16:43:54.755Z,101919.27
2019-04-14T16:49:19.234Z,101926.81
2019-04-14T16:54:50.148Z,101927.22
2019-04-14T17:00:21.598Z,101924.59
2019-04-14T17:05:44.565Z,101924.01
2019-04-14T17:11:08.030Z,101926.82
2019-04-14T17:16:39.448Z,101932.25
2019-04-14T17:22:11.745Z,101926.23
2019-04-14T17:27:58.168Z,101932.27
2019-04-14T17:33:31.437Z,101931.66
2019-04-14T17:39:18.382Z,101939.21
2019-04-14T17:44:47.462Z,101940.77
2019-04-14T17:50:40.173Z,101957.58
2019-04-14T17:56:09.980Z,101953.26
2019-04-14T18:02:05.790Z,101958.63
2019-04-14T18:07:44.707Z,101964.77
2019-04-14T18:13:33.303Z,101963.63
2019-04-14T18:19:27.676Z,101967.95
2019-04-14T18:24:52.121Z,101979.16
2019-04-14T18:30:26.256Z,101982.05
2019-04-14T18:35:57.905Z,101987.53
2019-04-14T18:41:25.440Z,101993.31
2019-04-14T18:47:04.746Z,102001.23
2019-04-14T18:52:36.896Z,102003.13
2019-04-14T18:58:22.083Z,102006.42
2019-04-14T19:03:46.192Z,102011.60
2019-04-14T19:09:10.361Z,102018.77
2019-04-14T19:14:38.370Z,102026.98
2019-04-14T19:20:02.779Z,102029.53
2019-04-14T19:25:27.438Z,102033.23
2019-04-14T19:30:51.895Z,102036.49
2019-04-14T19:36:16.216Z,102044.14
2019-04-14T19:41:41.047Z,102046.84
2019-04-14T19:47:05.537Z,102055.28
2019-04-14T19:52:29.996Z,102054.02
2019-04-14T19:57:54.490Z,102064.34
2019-04-14T20:03:19.034Z,102061.19
2019-04-14T20:08:43.278Z,102067.09
2019-04-14T20:14:07.834Z,102070.91
2019-04-14T20:19:56.125Z,102072.72
2019-04-14T20:25:37.503Z,102074.50
2019-04-14T20:31:15.073Z,102078.23
2019-04-14T20:36:39.769Z,102079.28
2019-04-14T20:42:05.186Z,102084.54
2019-04-14T20:47:29.409Z,102092.79
2019-04-14T20:52:53.724Z,102097.45
2019-04-14T20:58:17.311Z,102092.50
2019-04-14T21:03:49.179Z,102107.08
2019-04-14T21:09:29.879Z,102106.69
2019-04-14T21:15:00.937Z,102105.72
2019-04-14T21:20:52.456Z,102117.70
2019-04-14T21:26:47.843Z,102119.27
2019-04-14T21:32:16.475Z,102121.80
2019-04-14T21:37:56.650Z,102128.02
2019-04-14T21:43:21.299Z,102129.52
2019-04-14T21:48:46.752Z,102137.98
2019-04-14T21:54:10.991Z,102153.23
2019-04-14T21:59:40.151Z,102149.33
2019-04-14T22:05:15.466Z,102156.39
2019-04-14T22:10:51.958Z,102163.53
2019-04-14T22:16:16.483Z,102164.35
2019-04-14T22:21:41.451Z,102174.58
2019-04-14T22:27:05.973Z,102179.17
2019-04-14T22:32:30.143Z,102188.20
2019-04-14T22:37:54.854Z,102192.33
2019-04-14T22:43:19.104Z,102194.73
2019-04-14T22:48:43.277Z,102198.00
2019-04-14T22:54:08.772Z,102198.64
2019-04-14T22:59:33.220Z,102200.47
2019-04-14T23:05:12.506Z,102212.70
2019-04-14T23:10:54.316Z,102213.58
2019-04-14T23:16:29.062Z,102212.11
2019-04-14T23:22:04.495Z,102217.66
2019-04-14T23:27:28.584Z,102225.54
2019-04-14T23:32:51.964Z,102230.74
2019-04-14T23:38:16.545Z,102228.75
2019-04-14T23:43:40.771Z,102235.27
2019-04-14T23:49:05.283Z,102236.88
2019-04-14T23:54:29.088Z,102229.13
2019-04-14T23:59:52.818Z,102227.38
